Clarks, Texas
Current Conditions -  °F | °C
As of 3:15 AM on Thursday 23 Oct 2014 (Local Time) from KPKV Reporting Station
Clear Clear  
Wind Chill: 66°   Ceiling: Unl
Heat Index: 66°   Visibility: 10mi
Dew Point: 62°   Wind: 6mph
Humidity: 86%   Direction: 60°ENE
Pressure: 30.05"   Gusts: NA
Location:  28.5342°N, 96.663°W
Report Text: KPKV 230815Z AUTO 06005KT 10SM CLR 19/17 A3005 RMK AO2 T01900166
Loading
Personal Weather Stations






























Interactive Weather Map
Tropical Storm Tracking
New forecast layout! Learn more

10-Day Weather Forecast

Advertisements
Track Severe Weather on mobile